sensor_id;sensor_type;location;lat;lon;timestamp;P1;durP1;ratioP1;P2;durP2;ratioP2
8213;SDS011;4148;47.974;7.824;2022-08-20T00:00:55;10.93;;;9.70;;
8213;SDS011;4148;47.974;7.824;2022-08-20T00:03:28;14.00;;;10.63;;
8213;SDS011;4148;47.974;7.824;2022-08-20T00:05:58;10.90;;;9.27;;
8213;SDS011;4148;47.974;7.824;2022-08-20T00:08:28;12.20;;;10.13;;
8213;SDS011;4148;47.974;7.824;2022-08-20T00:10:58;11.83;;;10.20;;
8213;SDS011;4148;47.974;7.824;2022-08-20T00:13:28;12.97;;;9.90;;
8213;SDS011;4148;47.974;7.824;2022-08-20T00:16:10;12.43;;;9.53;;
8213;SDS011;4148;47.974;7.824;2022-08-20T00:18:39;11.40;;;9.60;;
8213;SDS011;4148;47.974;7.824;2022-08-20T00:21:12;10.33;;;9.00;;
8213;SDS011;4148;47.974;7.824;2022-08-20T00:23:45;9.40;;;7.67;;
8213;SDS011;4148;47.974;7.824;2022-08-20T00:26:15;10.57;;;7.97;;
8213;SDS011;4148;47.974;7.824;2022-08-20T00:28:44;9.60;;;8.43;;
8213;SDS011;4148;47.974;7.824;2022-08-20T00:31:13;10.87;;;9.27;;
8213;SDS011;4148;47.974;7.824;2022-08-20T00:33:42;9.27;;;8.27;;
8213;SDS011;4148;47.974;7.824;2022-08-20T00:36:10;8.60;;;7.73;;
8213;SDS011;4148;47.974;7.824;2022-08-20T00:38:41;10.87;;;8.37;;
8213;SDS011;4148;47.974;7.824;2022-08-20T00:41:11;9.50;;;8.57;;
8213;SDS011;4148;47.974;7.824;2022-08-20T00:43:44;10.10;;;8.00;;
8213;SDS011;4148;47.974;7.824;2022-08-20T00:46:14;9.53;;;8.57;;
8213;SDS011;4148;47.974;7.824;2022-08-20T00:48:46;9.90;;;8.90;;
8213;SDS011;4148;47.974;7.824;2022-08-20T00:51:20;10.07;;;7.93;;
8213;SDS011;4148;47.974;7.824;2022-08-20T00:53:55;9.90;;;8.90;;
8213;SDS011;4148;47.974;7.824;2022-08-20T00:56:28;9.00;;;8.10;;
8213;SDS011;4148;47.974;7.824;2022-08-20T00:58:59;11.37;;;9.20;;
8213;SDS011;4148;47.974;7.824;2022-08-20T01:01:29;10.60;;;8.70;;
8213;SDS011;4148;47.974;7.824;2022-08-20T01:04:19;9.70;;;8.80;;
8213;SDS011;4148;47.974;7.824;2022-08-20T01:06:47;10.33;;;9.20;;
8213;SDS011;4148;47.974;7.824;2022-08-20T01:09:15;10.50;;;9.50;;
8213;SDS011;4148;47.974;7.824;2022-08-20T01:12:03;9.43;;;8.30;;
8213;SDS011;4148;47.974;7.824;2022-08-20T01:14:34;11.20;;;8.67;;
8213;SDS011;4148;47.974;7.824;2022-08-20T01:17:09;10.70;;;9.03;;
8213;SDS011;4148;47.974;7.824;2022-08-20T01:19:42;10.27;;;8.50;;
8213;SDS011;4148;47.974;7.824;2022-08-20T01:22:14;9.30;;;8.40;;
8213;SDS011;4148;47.974;7.824;2022-08-20T01:25:06;8.27;;;7.40;;
8213;SDS011;4148;47.974;7.824;2022-08-20T01:27:40;8.40;;;7.60;;
8213;SDS011;4148;47.974;7.824;2022-08-20T01:30:10;11.17;;;8.00;;
8213;SDS011;4148;47.974;7.824;2022-08-20T01:32:38;9.73;;;7.77;;
8213;SDS011;4148;47.974;7.824;2022-08-20T01:35:07;8.63;;;7.83;;
8213;SDS011;4148;47.974;7.824;2022-08-20T01:37:35;8.20;;;7.40;;
8213;SDS011;4148;47.974;7.824;2022-08-20T01:40:03;7.63;;;6.80;;
8213;SDS011;4148;47.974;7.824;2022-08-20T01:42:42;8.20;;;7.40;;
8213;SDS011;4148;47.974;7.824;2022-08-20T01:45:24;7.20;;;6.50;;
8213;SDS011;4148;47.974;7.824;2022-08-20T01:47:55;7.57;;;6.87;;
8213;SDS011;4148;47.974;7.824;2022-08-20T01:50:25;9.77;;;7.10;;
8213;SDS011;4148;47.974;7.824;2022-08-20T01:52:56;10.63;;;7.40;;
8213;SDS011;4148;47.974;7.824;2022-08-20T01:55:29;7.30;;;6.53;;
8213;SDS011;4148;47.974;7.824;2022-08-20T01:57:59;7.60;;;6.80;;
8213;SDS011;4148;47.974;7.824;2022-08-20T02:00:28;7.63;;;6.83;;
8213;SDS011;4148;47.974;7.824;2022-08-20T02:02:57;9.03;;;6.90;;
8213;SDS011;4148;47.974;7.824;2022-08-20T02:05:25;7.10;;;6.40;;
8213;SDS011;4148;47.974;7.824;2022-08-20T02:07:55;6.67;;;6.07;;
8213;SDS011;4148;47.974;7.824;2022-08-20T02:10:23;8.40;;;7.37;;
8213;SDS011;4148;47.974;7.824;2022-08-20T02:12:51;9.10;;;7.13;;
8213;SDS011;4148;47.974;7.824;2022-08-20T02:15:21;8.13;;;7.33;;
8213;SDS011;4148;47.974;7.824;2022-08-20T02:18:02;8.10;;;7.10;;
8213;SDS011;4148;47.974;7.824;2022-08-20T02:20:33;9.63;;;6.67;;
8213;SDS011;4148;47.974;7.824;2022-08-20T02:23:03;7.73;;;7.03;;
8213;SDS011;4148;47.974;7.824;2022-08-20T02:25:33;7.13;;;6.43;;
8213;SDS011;4148;47.974;7.824;2022-08-20T02:28:04;8.90;;;8.00;;
8213;SDS011;4148;47.974;7.824;2022-08-20T02:30:37;8.93;;;6.97;;
8213;SDS011;4148;47.974;7.824;2022-08-20T02:33:07;7.03;;;6.33;;
8213;SDS011;4148;47.974;7.824;2022-08-20T02:35:37;8.73;;;7.20;;
8213;SDS011;4148;47.974;7.824;2022-08-20T02:38:06;8.43;;;7.50;;
8213;SDS011;4148;47.974;7.824;2022-08-20T02:40:34;10.57;;;7.77;;
8213;SDS011;4148;47.974;7.824;2022-08-20T02:43:03;11.63;;;8.10;;
8213;SDS011;4148;47.974;7.824;2022-08-20T02:45:32;9.17;;;7.53;;
8213;SDS011;4148;47.974;7.824;2022-08-20T02:48:03;8.27;;;7.43;;
8213;SDS011;4148;47.974;7.824;2022-08-20T02:50:31;7.57;;;6.87;;
8213;SDS011;4148;47.974;7.824;2022-08-20T02:52:59;7.93;;;7.23;;
8213;SDS011;4148;47.974;7.824;2022-08-20T02:55:27;8.93;;;7.63;;
8213;SDS011;4148;47.974;7.824;2022-08-20T02:57:56;7.80;;;7.10;;
8213;SDS011;4148;47.974;7.824;2022-08-20T03:00:26;8.30;;;7.50;;
8213;SDS011;4148;47.974;7.824;2022-08-20T03:03:05;7.67;;;6.97;;
8213;SDS011;4148;47.974;7.824;2022-08-20T03:05:36;9.13;;;8.27;;
8213;SDS011;4148;47.974;7.824;2022-08-20T03:08:05;8.40;;;7.50;;
8213;SDS011;4148;47.974;7.824;2022-08-20T03:10:35;7.90;;;7.10;;
8213;SDS011;4148;47.974;7.824;2022-08-20T03:13:05;9.00;;;8.17;;
8213;SDS011;4148;47.974;7.824;2022-08-20T03:15:38;9.47;;;7.30;;
8213;SDS011;4148;47.974;7.824;2022-08-20T03:18:09;7.90;;;7.10;;
8213;SDS011;4148;47.974;7.824;2022-08-20T03:20:37;8.77;;;7.80;;
8213;SDS011;4148;47.974;7.824;2022-08-20T03:23:05;8.23;;;7.20;;
8213;SDS011;4148;47.974;7.824;2022-08-20T03:25:33;9.23;;;7.60;;
8213;SDS011;4148;47.974;7.824;2022-08-20T03:28:02;10.53;;;7.10;;
8213;SDS011;4148;47.974;7.824;2022-08-20T03:30:30;9.30;;;6.53;;
8213;SDS011;4148;47.974;7.824;2022-08-20T03:32:58;7.00;;;6.30;;
8213;SDS011;4148;47.974;7.824;2022-08-20T03:35:29;11.60;;;6.30;;
8213;SDS011;4148;47.974;7.824;2022-08-20T03:37:58;7.80;;;7.10;;
8213;SDS011;4148;47.974;7.824;2022-08-20T03:40:27;7.30;;;6.13;;
8213;SDS011;4148;47.974;7.824;2022-08-20T03:42:57;6.73;;;6.10;;
8213;SDS011;4148;47.974;7.824;2022-08-20T03:45:25;8.17;;;6.87;;
8213;SDS011;4148;47.974;7.824;2022-08-20T03:47:55;7.43;;;6.57;;
8213;SDS011;4148;47.974;7.824;2022-08-20T03:50:24;7.90;;;7.13;;
8213;SDS011;4148;47.974;7.824;2022-08-20T03:52:56;8.43;;;7.17;;
8213;SDS011;4148;47.974;7.824;2022-08-20T03:55:25;6.20;;;5.53;;
8213;SDS011;4148;47.974;7.824;2022-08-20T03:57:56;7.77;;;6.73;;
8213;SDS011;4148;47.974;7.824;2022-08-20T04:00:28;6.53;;;5.80;;
8213;SDS011;4148;47.974;7.824;2022-08-20T04:03:02;8.73;;;7.10;;
8213;SDS011;4148;47.974;7.824;2022-08-20T04:05:30;7.80;;;7.00;;
8213;SDS011;4148;47.974;7.824;2022-08-20T04:08:01;6.97;;;6.27;;
8213;SDS011;4148;47.974;7.824;2022-08-20T04:10:29;7.93;;;7.13;;
8213;SDS011;4148;47.974;7.824;2022-08-20T04:12:57;8.90;;;6.40;;
8213;SDS011;4148;47.974;7.824;2022-08-20T04:15:26;7.70;;;5.60;;
8213;SDS011;4148;47.974;7.824;2022-08-20T04:17:56;7.73;;;6.13;;
8213;SDS011;4148;47.974;7.824;2022-08-20T04:20:25;8.93;;;6.00;;
8213;SDS011;4148;47.974;7.824;2022-08-20T04:22:54;7.37;;;5.80;;
8213;SDS011;4148;47.974;7.824;2022-08-20T04:25:26;7.53;;;6.60;;
8213;SDS011;4148;47.974;7.824;2022-08-20T04:27:55;7.50;;;6.80;;
8213;SDS011;4148;47.974;7.824;2022-08-20T04:30:24;8.67;;;6.67;;
8213;SDS011;4148;47.974;7.824;2022-08-20T04:32:53;10.20;;;7.80;;
8213;SDS011;4148;47.974;7.824;2022-08-20T04:35:22;10.27;;;7.87;;
8213;SDS011;4148;47.974;7.824;2022-08-20T04:37:56;8.67;;;7.87;;
8213;SDS011;4148;47.974;7.824;2022-08-20T04:40:26;10.23;;;8.33;;
8213;SDS011;4148;47.974;7.824;2022-08-20T04:43:12;10.83;;;8.60;;
8213;SDS011;4148;47.974;7.824;2022-08-20T04:45:40;11.77;;;8.90;;
8213;SDS011;4148;47.974;7.824;2022-08-20T04:48:08;10.47;;;9.40;;
8213;SDS011;4148;47.974;7.824;2022-08-20T04:50:41;12.97;;;9.67;;
8213;SDS011;4148;47.974;7.824;2022-08-20T04:53:12;9.83;;;8.87;;
8213;SDS011;4148;47.974;7.824;2022-08-20T04:55:49;10.30;;;8.33;;
8213;SDS011;4148;47.974;7.824;2022-08-20T04:58:22;11.80;;;9.30;;
8213;SDS011;4148;47.974;7.824;2022-08-20T05:00:53;11.33;;;7.43;;
8213;SDS011;4148;47.974;7.824;2022-08-20T05:03:27;9.20;;;8.07;;
8213;SDS011;4148;47.974;7.824;2022-08-20T05:05:55;9.40;;;8.50;;
8213;SDS011;4148;47.974;7.824;2022-08-20T05:08:24;8.10;;;7.23;;
8213;SDS011;4148;47.974;7.824;2022-08-20T05:10:54;8.80;;;7.77;;
8213;SDS011;4148;47.974;7.824;2022-08-20T05:13:42;10.47;;;8.50;;
8213;SDS011;4148;47.974;7.824;2022-08-20T05:16:10;9.23;;;7.90;;
8213;SDS011;4148;47.974;7.824;2022-08-20T05:18:38;8.47;;;7.30;;
8213;SDS011;4148;47.974;7.824;2022-08-20T05:21:08;10.87;;;6.97;;
8213;SDS011;4148;47.974;7.824;2022-08-20T05:23:40;9.53;;;7.33;;
8213;SDS011;4148;47.974;7.824;2022-08-20T05:26:09;7.90;;;7.10;;
8213;SDS011;4148;47.974;7.824;2022-08-20T05:28:38;6.87;;;6.13;;
8213;SDS011;4148;47.974;7.824;2022-08-20T05:31:24;8.53;;;7.10;;
8213;SDS011;4148;47.974;7.824;2022-08-20T05:33:57;7.27;;;6.47;;
8213;SDS011;4148;47.974;7.824;2022-08-20T05:36:25;8.03;;;5.43;;
8213;SDS011;4148;47.974;7.824;2022-08-20T05:38:53;5.67;;;5.10;;
8213;SDS011;4148;47.974;7.824;2022-08-20T05:41:22;6.87;;;5.77;;
8213;SDS011;4148;47.974;7.824;2022-08-20T05:43:55;7.60;;;6.37;;
8213;SDS011;4148;47.974;7.824;2022-08-20T05:46:23;7.20;;;6.50;;
8213;SDS011;4148;47.974;7.824;2022-08-20T05:48:50;7.07;;;6.37;;
8213;SDS011;4148;47.974;7.824;2022-08-20T05:51:18;8.40;;;6.07;;
8213;SDS011;4148;47.974;7.824;2022-08-20T05:53:46;6.63;;;6.03;;
8213;SDS011;4148;47.974;7.824;2022-08-20T05:56:14;5.80;;;5.00;;
8213;SDS011;4148;47.974;7.824;2022-08-20T05:58:43;7.17;;;5.93;;
8213;SDS011;4148;47.974;7.824;2022-08-20T06:01:11;6.43;;;4.87;;
8213;SDS011;4148;47.974;7.824;2022-08-20T06:03:39;5.60;;;5.10;;
8213;SDS011;4148;47.974;7.824;2022-08-20T06:06:24;5.90;;;4.70;;
8213;SDS011;4148;47.974;7.824;2022-08-20T06:09:12;5.40;;;4.90;;
8213;SDS011;4148;47.974;7.824;2022-08-20T06:11:55;7.40;;;4.80;;
8213;SDS011;4148;47.974;7.824;2022-08-20T06:14:26;4.97;;;4.47;;
8213;SDS011;4148;47.974;7.824;2022-08-20T06:16:54;5.27;;;4.10;;
8213;SDS011;4148;47.974;7.824;2022-08-20T06:19:28;7.07;;;5.10;;
8213;SDS011;4148;47.974;7.824;2022-08-20T06:21:58;5.30;;;4.80;;
8213;SDS011;4148;47.974;7.824;2022-08-20T06:24:26;5.87;;;5.27;;
8213;SDS011;4148;47.974;7.824;2022-08-20T06:26:54;6.80;;;5.20;;
8213;SDS011;4148;47.974;7.824;2022-08-20T06:29:22;6.57;;;5.03;;
8213;SDS011;4148;47.974;7.824;2022-08-20T06:31:52;24.13;;;6.60;;
8213;SDS011;4148;47.974;7.824;2022-08-20T06:34:20;6.90;;;5.30;;
8213;SDS011;4148;47.974;7.824;2022-08-20T06:36:53;6.20;;;4.90;;
8213;SDS011;4148;47.974;7.824;2022-08-20T06:39:22;5.73;;;4.90;;
8213;SDS011;4148;47.974;7.824;2022-08-20T06:41:50;5.20;;;4.70;;
8213;SDS011;4148;47.974;7.824;2022-08-20T06:44:20;8.33;;;4.90;;
8213;SDS011;4148;47.974;7.824;2022-08-20T06:46:48;6.10;;;4.60;;
8213;SDS011;4148;47.974;7.824;2022-08-20T06:49:17;4.20;;;3.80;;
8213;SDS011;4148;47.974;7.824;2022-08-20T06:51:45;5.20;;;4.40;;
8213;SDS011;4148;47.974;7.824;2022-08-20T06:54:17;7.83;;;4.70;;
8213;SDS011;4148;47.974;7.824;2022-08-20T06:56:45;6.67;;;5.37;;
8213;SDS011;4148;47.974;7.824;2022-08-20T06:59:13;5.70;;;5.10;;
8213;SDS011;4148;47.974;7.824;2022-08-20T07:01:41;7.20;;;6.00;;
8213;SDS011;4148;47.974;7.824;2022-08-20T07:04:09;7.80;;;5.30;;
8213;SDS011;4148;47.974;7.824;2022-08-20T07:06:38;8.00;;;6.47;;
8213;SDS011;4148;47.974;7.824;2022-08-20T07:09:06;11.73;;;6.30;;
8213;SDS011;4148;47.974;7.824;2022-08-20T07:11:34;7.03;;;6.33;;
8213;SDS011;4148;47.974;7.824;2022-08-20T07:14:02;8.27;;;7.40;;
8213;SDS011;4148;47.974;7.824;2022-08-20T07:16:31;6.13;;;5.53;;
8213;SDS011;4148;47.974;7.824;2022-08-20T07:18:58;6.50;;;5.07;;
8213;SDS011;4148;47.974;7.824;2022-08-20T07:21:26;5.87;;;4.57;;
8213;SDS011;4148;47.974;7.824;2022-08-20T07:23:56;6.63;;;5.33;;
8213;SDS011;4148;47.974;7.824;2022-08-20T07:26:24;5.30;;;4.40;;
8213;SDS011;4148;47.974;7.824;2022-08-20T07:28:52;6.30;;;4.83;;
8213;SDS011;4148;47.974;7.824;2022-08-20T07:31:20;6.30;;;4.63;;
8213;SDS011;4148;47.974;7.824;2022-08-20T07:34:07;5.70;;;4.80;;
8213;SDS011;4148;47.974;7.824;2022-08-20T07:36:37;7.13;;;5.10;;
8213;SDS011;4148;47.974;7.824;2022-08-20T07:39:06;6.23;;;4.73;;
8213;SDS011;4148;47.974;7.824;2022-08-20T07:41:34;4.63;;;4.20;;
8213;SDS011;4148;47.974;7.824;2022-08-20T07:44:02;5.73;;;4.20;;
8213;SDS011;4148;47.974;7.824;2022-08-20T07:46:31;5.13;;;4.13;;
8213;SDS011;4148;47.974;7.824;2022-08-20T07:48:59;7.20;;;4.83;;
8213;SDS011;4148;47.974;7.824;2022-08-20T07:51:27;9.23;;;4.60;;
8213;SDS011;4148;47.974;7.824;2022-08-20T07:53:55;6.00;;;5.37;;
8213;SDS011;4148;47.974;7.824;2022-08-20T07:56:26;5.57;;;4.70;;
8213;SDS011;4148;47.974;7.824;2022-08-20T07:58:55;5.73;;;4.80;;
8213;SDS011;4148;47.974;7.824;2022-08-20T08:01:26;5.33;;;4.83;;
8213;SDS011;4148;47.974;7.824;2022-08-20T08:03:55;4.47;;;4.07;;
8213;SDS011;4148;47.974;7.824;2022-08-20T08:06:24;5.10;;;4.60;;
8213;SDS011;4148;47.974;7.824;2022-08-20T08:08:57;5.40;;;4.90;;
8213;SDS011;4148;47.974;7.824;2022-08-20T08:11:31;5.30;;;4.70;;
8213;SDS011;4148;47.974;7.824;2022-08-20T08:14:01;5.30;;;4.27;;
8213;SDS011;4148;47.974;7.824;2022-08-20T08:16:31;4.23;;;3.70;;
8213;SDS011;4148;47.974;7.824;2022-08-20T08:19:00;3.50;;;3.20;;
8213;SDS011;4148;47.974;7.824;2022-08-20T08:21:31;5.13;;;2.97;;
8213;SDS011;4148;47.974;7.824;2022-08-20T08:23:59;2.60;;;2.40;;
8213;SDS011;4148;47.974;7.824;2022-08-20T08:26:27;2.63;;;2.40;;
8213;SDS011;4148;47.974;7.824;2022-08-20T08:28:57;2.53;;;2.33;;
8213;SDS011;4148;47.974;7.824;2022-08-20T08:31:24;3.40;;;2.17;;
8213;SDS011;4148;47.974;7.824;2022-08-20T08:33:53;2.40;;;2.20;;
8213;SDS011;4148;47.974;7.824;2022-08-20T08:36:21;2.93;;;2.53;;
8213;SDS011;4148;47.974;7.824;2022-08-20T08:38:51;2.20;;;2.00;;
8213;SDS011;4148;47.974;7.824;2022-08-20T08:41:22;2.03;;;1.83;;
8213;SDS011;4148;47.974;7.824;2022-08-20T08:43:58;2.93;;;1.80;;
8213;SDS011;4148;47.974;7.824;2022-08-20T08:46:31;2.50;;;1.70;;
8213;SDS011;4148;47.974;7.824;2022-08-20T08:49:03;3.27;;;1.80;;
8213;SDS011;4148;47.974;7.824;2022-08-20T08:51:32;2.00;;;1.70;;
8213;SDS011;4148;47.974;7.824;2022-08-20T08:54:04;3.33;;;1.43;;
8213;SDS011;4148;47.974;7.824;2022-08-20T08:56:34;2.20;;;2.00;;
8213;SDS011;4148;47.974;7.824;2022-08-20T08:59:05;1.70;;;1.50;;
8213;SDS011;4148;47.974;7.824;2022-08-20T09:01:34;2.00;;;1.70;;
8213;SDS011;4148;47.974;7.824;2022-08-20T09:04:21;2.17;;;1.57;;
8213;SDS011;4148;47.974;7.824;2022-08-20T09:06:50;2.70;;;2.03;;
8213;SDS011;4148;47.974;7.824;2022-08-20T09:09:20;2.30;;;2.10;;
8213;SDS011;4148;47.974;7.824;2022-08-20T09:11:51;3.20;;;1.80;;
8213;SDS011;4148;47.974;7.824;2022-08-20T09:14:22;1.87;;;1.67;;
8213;SDS011;4148;47.974;7.824;2022-08-20T09:16:50;2.30;;;2.00;;
8213;SDS011;4148;47.974;7.824;2022-08-20T09:19:18;3.40;;;1.90;;
8213;SDS011;4148;47.974;7.824;2022-08-20T09:21:46;2.43;;;2.00;;
8213;SDS011;4148;47.974;7.824;2022-08-20T09:24:14;2.43;;;1.37;;
8213;SDS011;4148;47.974;7.824;2022-08-20T09:26:42;2.13;;;1.80;;
8213;SDS011;4148;47.974;7.824;2022-08-20T09:29:11;2.23;;;2.03;;
8213;SDS011;4148;47.974;7.824;2022-08-20T09:31:41;2.00;;;1.80;;
8213;SDS011;4148;47.974;7.824;2022-08-20T09:34:11;2.53;;;2.10;;
8213;SDS011;4148;47.974;7.824;2022-08-20T09:36:39;2.40;;;2.20;;
8213;SDS011;4148;47.974;7.824;2022-08-20T09:39:07;2.80;;;2.00;;
8213;SDS011;4148;47.974;7.824;2022-08-20T09:41:35;2.30;;;2.03;;
8213;SDS011;4148;47.974;7.824;2022-08-20T09:44:03;3.10;;;2.40;;
8213;SDS011;4148;47.974;7.824;2022-08-20T09:46:30;2.20;;;2.00;;
8213;SDS011;4148;47.974;7.824;2022-08-20T09:49:00;2.00;;;1.80;;
8213;SDS011;4148;47.974;7.824;2022-08-20T09:51:27;2.50;;;2.20;;
8213;SDS011;4148;47.974;7.824;2022-08-20T09:53:55;2.10;;;1.70;;
8213;SDS011;4148;47.974;7.824;2022-08-20T09:56:23;3.90;;;1.97;;
8213;SDS011;4148;47.974;7.824;2022-08-20T09:58:52;2.13;;;1.50;;
8213;SDS011;4148;47.974;7.824;2022-08-20T10:01:27;3.40;;;1.50;;
8213;SDS011;4148;47.974;7.824;2022-08-20T10:03:55;1.87;;;1.47;;
8213;SDS011;4148;47.974;7.824;2022-08-20T10:06:24;1.90;;;1.67;;
8213;SDS011;4148;47.974;7.824;2022-08-20T10:08:52;2.00;;;1.40;;
8213;SDS011;4148;47.974;7.824;2022-08-20T10:11:20;1.80;;;1.60;;
8213;SDS011;4148;47.974;7.824;2022-08-20T10:13:48;2.93;;;1.83;;
8213;SDS011;4148;47.974;7.824;2022-08-20T10:16:16;2.90;;;1.70;;
8213;SDS011;4148;47.974;7.824;2022-08-20T10:18:43;1.70;;;1.60;;
8213;SDS011;4148;47.974;7.824;2022-08-20T10:21:14;2.10;;;1.80;;
8213;SDS011;4148;47.974;7.824;2022-08-20T10:23:44;2.73;;;1.93;;
8213;SDS011;4148;47.974;7.824;2022-08-20T10:26:12;1.90;;;1.70;;
8213;SDS011;4148;47.974;7.824;2022-08-20T10:28:40;2.60;;;2.10;;
8213;SDS011;4148;47.974;7.824;2022-08-20T10:31:08;2.90;;;2.10;;
8213;SDS011;4148;47.974;7.824;2022-08-20T10:33:37;2.40;;;2.20;;
8213;SDS011;4148;47.974;7.824;2022-08-20T10:36:06;2.03;;;1.50;;
8213;SDS011;4148;47.974;7.824;2022-08-20T10:38:35;2.17;;;1.80;;
8213;SDS011;4148;47.974;7.824;2022-08-20T10:41:04;2.37;;;1.57;;
8213;SDS011;4148;47.974;7.824;2022-08-20T10:43:32;1.80;;;1.60;;
8213;SDS011;4148;47.974;7.824;2022-08-20T10:46:00;2.43;;;2.10;;
8213;SDS011;4148;47.974;7.824;2022-08-20T10:48:28;2.30;;;1.70;;
8213;SDS011;4148;47.974;7.824;2022-08-20T10:50:57;2.10;;;1.60;;
8213;SDS011;4148;47.974;7.824;2022-08-20T10:53:25;1.87;;;1.67;;
8213;SDS011;4148;47.974;7.824;2022-08-20T10:55:53;2.17;;;1.50;;
8213;SDS011;4148;47.974;7.824;2022-08-20T10:58:22;2.67;;;1.83;;
8213;SDS011;4148;47.974;7.824;2022-08-20T11:00:51;2.57;;;1.60;;
8213;SDS011;4148;47.974;7.824;2022-08-20T11:03:19;1.80;;;1.33;;
8213;SDS011;4148;47.974;7.824;2022-08-20T11:05:47;1.60;;;1.33;;
8213;SDS011;4148;47.974;7.824;2022-08-20T11:08:15;1.70;;;1.50;;
8213;SDS011;4148;47.974;7.824;2022-08-20T11:10:59;2.20;;;1.30;;
8213;SDS011;4148;47.974;7.824;2022-08-20T11:13:28;1.70;;;1.20;;
8213;SDS011;4148;47.974;7.824;2022-08-20T11:15:56;1.50;;;1.30;;
8213;SDS011;4148;47.974;7.824;2022-08-20T11:18:24;2.03;;;1.37;;
8213;SDS011;4148;47.974;7.824;2022-08-20T11:20:52;1.60;;;1.23;;
8213;SDS011;4148;47.974;7.824;2022-08-20T11:23:20;1.60;;;1.20;;
8213;SDS011;4148;47.974;7.824;2022-08-20T11:25:48;3.20;;;1.30;;
8213;SDS011;4148;47.974;7.824;2022-08-20T11:28:16;1.60;;;1.40;;
8213;SDS011;4148;47.974;7.824;2022-08-20T11:30:58;1.47;;;1.20;;
8213;SDS011;4148;47.974;7.824;2022-08-20T11:33:26;1.53;;;1.40;;
8213;SDS011;4148;47.974;7.824;2022-08-20T11:35:54;1.90;;;1.63;;
8213;SDS011;4148;47.974;7.824;2022-08-20T11:38:22;1.57;;;1.23;;
8213;SDS011;4148;47.974;7.824;2022-08-20T11:40:50;1.70;;;1.20;;
8213;SDS011;4148;47.974;7.824;2022-08-20T11:43:18;1.60;;;1.30;;
8213;SDS011;4148;47.974;7.824;2022-08-20T11:45:47;2.07;;;1.43;;
8213;SDS011;4148;47.974;7.824;2022-08-20T11:48:18;1.50;;;1.10;;
8213;SDS011;4148;47.974;7.824;2022-08-20T11:50:46;1.87;;;1.40;;
8213;SDS011;4148;47.974;7.824;2022-08-20T11:53:14;1.50;;;1.37;;
8213;SDS011;4148;47.974;7.824;2022-08-20T11:55:42;1.60;;;1.20;;
8213;SDS011;4148;47.974;7.824;2022-08-20T11:58:11;2.10;;;1.30;;
8213;SDS011;4148;47.974;7.824;2022-08-20T12:00:39;1.50;;;1.20;;
8213;SDS011;4148;47.974;7.824;2022-08-20T12:03:07;1.70;;;1.20;;
8213;SDS011;4148;47.974;7.824;2022-08-20T12:05:39;1.40;;;1.20;;
8213;SDS011;4148;47.974;7.824;2022-08-20T12:08:08;1.73;;;1.37;;
8213;SDS011;4148;47.974;7.824;2022-08-20T12:10:53;1.53;;;1.23;;
8213;SDS011;4148;47.974;7.824;2022-08-20T12:13:21;1.70;;;1.43;;
8213;SDS011;4148;47.974;7.824;2022-08-20T12:16:01;1.50;;;1.10;;
8213;SDS011;4148;47.974;7.824;2022-08-20T12:18:30;1.60;;;1.40;;
8213;SDS011;4148;47.974;7.824;2022-08-20T12:20:59;2.50;;;2.00;;
8213;SDS011;4148;47.974;7.824;2022-08-20T12:23:27;1.90;;;1.40;;
8213;SDS011;4148;47.974;7.824;2022-08-20T12:25:55;1.77;;;1.40;;
8213;SDS011;4148;47.974;7.824;2022-08-20T12:28:24;1.93;;;1.50;;
8213;SDS011;4148;47.974;7.824;2022-08-20T12:30:52;1.50;;;1.30;;
8213;SDS011;4148;47.974;7.824;2022-08-20T12:33:20;2.10;;;1.47;;
8213;SDS011;4148;47.974;7.824;2022-08-20T12:35:48;1.70;;;1.30;;
8213;SDS011;4148;47.974;7.824;2022-08-20T12:38:17;2.77;;;1.40;;
8213;SDS011;4148;47.974;7.824;2022-08-20T12:40:45;1.80;;;1.40;;
8213;SDS011;4148;47.974;7.824;2022-08-20T12:43:13;2.17;;;1.40;;
8213;SDS011;4148;47.974;7.824;2022-08-20T12:45:41;1.40;;;1.10;;
8213;SDS011;4148;47.974;7.824;2022-08-20T12:48:10;1.40;;;1.13;;
8213;SDS011;4148;47.974;7.824;2022-08-20T12:50:40;1.47;;;1.20;;
8213;SDS011;4148;47.974;7.824;2022-08-20T12:53:09;1.80;;;1.30;;
8213;SDS011;4148;47.974;7.824;2022-08-20T12:55:39;1.80;;;1.20;;
8213;SDS011;4148;47.974;7.824;2022-08-20T12:58:07;1.70;;;1.10;;
8213;SDS011;4148;47.974;7.824;2022-08-20T13:00:37;1.70;;;1.10;;
8213;SDS011;4148;47.974;7.824;2022-08-20T13:03:09;1.40;;;1.10;;
8213;SDS011;4148;47.974;7.824;2022-08-20T13:05:38;1.50;;;1.20;;
8213;SDS011;4148;47.974;7.824;2022-08-20T13:08:07;1.57;;;1.27;;
8213;SDS011;4148;47.974;7.824;2022-08-20T13:10:36;1.53;;;1.17;;
8213;SDS011;4148;47.974;7.824;2022-08-20T13:13:09;1.57;;;1.40;;
8213;SDS011;4148;47.974;7.824;2022-08-20T13:15:38;1.90;;;1.40;;
8213;SDS011;4148;47.974;7.824;2022-08-20T13:18:06;4.53;;;2.13;;
8213;SDS011;4148;47.974;7.824;2022-08-20T13:20:34;15.57;;;3.63;;
8213;SDS011;4148;47.974;7.824;2022-08-20T13:23:02;10.67;;;3.60;;
8213;SDS011;4148;47.974;7.824;2022-08-20T13:25:31;3.30;;;2.10;;
8213;SDS011;4148;47.974;7.824;2022-08-20T13:28:01;3.23;;;2.10;;
8213;SDS011;4148;47.974;7.824;2022-08-20T13:30:30;3.80;;;2.13;;
8213;SDS011;4148;47.974;7.824;2022-08-20T13:32:59;3.43;;;2.13;;
8213;SDS011;4148;47.974;7.824;2022-08-20T13:35:27;5.00;;;1.80;;
8213;SDS011;4148;47.974;7.824;2022-08-20T13:37:55;2.53;;;2.13;;
8213;SDS011;4148;47.974;7.824;2022-08-20T13:40:23;2.73;;;1.80;;
8213;SDS011;4148;47.974;7.824;2022-08-20T13:42:51;6.83;;;2.07;;
8213;SDS011;4148;47.974;7.824;2022-08-20T13:45:21;4.27;;;1.80;;
8213;SDS011;4148;47.974;7.824;2022-08-20T13:47:50;1.60;;;1.50;;
8213;SDS011;4148;47.974;7.824;2022-08-20T13:50:20;5.90;;;1.33;;
8213;SDS011;4148;47.974;7.824;2022-08-20T13:52:50;1.60;;;1.50;;
8213;SDS011;4148;47.974;7.824;2022-08-20T13:55:18;1.83;;;1.43;;
8213;SDS011;4148;47.974;7.824;2022-08-20T13:57:48;2.07;;;1.50;;
8213;SDS011;4148;47.974;7.824;2022-08-20T14:00:18;2.17;;;1.50;;
8213;SDS011;4148;47.974;7.824;2022-08-20T14:02:58;1.43;;;1.23;;
8213;SDS011;4148;47.974;7.824;2022-08-20T14:05:26;1.97;;;1.77;;
8213;SDS011;4148;47.974;7.824;2022-08-20T14:07:55;1.50;;;1.30;;
8213;SDS011;4148;47.974;7.824;2022-08-20T14:10:30;1.87;;;1.57;;
8213;SDS011;4148;47.974;7.824;2022-08-20T14:12:58;1.97;;;1.60;;
8213;SDS011;4148;47.974;7.824;2022-08-20T14:15:26;1.73;;;1.43;;
8213;SDS011;4148;47.974;7.824;2022-08-20T14:17:54;2.00;;;1.50;;
8213;SDS011;4148;47.974;7.824;2022-08-20T14:20:26;2.23;;;1.60;;
8213;SDS011;4148;47.974;7.824;2022-08-20T14:22:57;2.40;;;1.70;;
8213;SDS011;4148;47.974;7.824;2022-08-20T14:25:26;2.30;;;1.87;;
8213;SDS011;4148;47.974;7.824;2022-08-20T14:27:54;1.90;;;1.60;;
8213;SDS011;4148;47.974;7.824;2022-08-20T14:30:24;1.87;;;1.60;;
8213;SDS011;4148;47.974;7.824;2022-08-20T14:32:53;2.33;;;1.70;;
8213;SDS011;4148;47.974;7.824;2022-08-20T14:35:21;2.90;;;1.47;;
8213;SDS011;4148;47.974;7.824;2022-08-20T14:37:51;2.00;;;1.80;;
8213;SDS011;4148;47.974;7.824;2022-08-20T14:40:21;3.07;;;2.00;;
8213;SDS011;4148;47.974;7.824;2022-08-20T14:42:50;2.90;;;1.87;;
8213;SDS011;4148;47.974;7.824;2022-08-20T14:45:19;4.00;;;2.10;;
8213;SDS011;4148;47.974;7.824;2022-08-20T14:47:49;1.90;;;1.67;;
8213;SDS011;4148;47.974;7.824;2022-08-20T14:50:21;2.80;;;1.70;;
8213;SDS011;4148;47.974;7.824;2022-08-20T14:52:52;2.10;;;1.80;;
8213;SDS011;4148;47.974;7.824;2022-08-20T14:55:21;2.73;;;2.00;;
8213;SDS011;4148;47.974;7.824;2022-08-20T14:57:51;2.20;;;1.90;;
8213;SDS011;4148;47.974;7.824;2022-08-20T15:00:20;2.50;;;2.03;;
8213;SDS011;4148;47.974;7.824;2022-08-20T15:02:51;2.40;;;2.20;;
8213;SDS011;4148;47.974;7.824;2022-08-20T15:05:19;3.03;;;2.10;;
8213;SDS011;4148;47.974;7.824;2022-08-20T15:07:49;3.77;;;1.93;;
8213;SDS011;4148;47.974;7.824;2022-08-20T15:10:21;2.50;;;2.00;;
8213;SDS011;4148;47.974;7.824;2022-08-20T15:12:51;2.23;;;1.70;;
8213;SDS011;4148;47.974;7.824;2022-08-20T15:15:19;2.00;;;1.80;;
8213;SDS011;4148;47.974;7.824;2022-08-20T15:17:48;5.47;;;2.10;;
8213;SDS011;4148;47.974;7.824;2022-08-20T15:20:19;2.73;;;1.70;;
8213;SDS011;4148;47.974;7.824;2022-08-20T15:22:49;2.53;;;2.03;;
8213;SDS011;4148;47.974;7.824;2022-08-20T15:25:18;2.00;;;1.80;;
8213;SDS011;4148;47.974;7.824;2022-08-20T15:27:49;2.30;;;1.80;;
8213;SDS011;4148;47.974;7.824;2022-08-20T15:30:26;3.70;;;1.67;;